Monday, December 5, 2016, 11:37 AM EST

KEZF, Fredericksburg, Shannon Airport

Location: Fredericksburg, VA, United States Lat: 38.267
Local Time: 11:37 AM EST (16:37 GMT) Lon: -77.45
Time Zone: US/Eastern Elev: 85 ft

Show me the last for .
Show Decoded

2016-12-05 11:15 METAR KEZF 051615Z AUTO 00000KT 10SM OVC007 07/07 A3004 RMK AO2 T00660066 =
2016-12-05 10:55 METAR KEZF 051555Z AUTO 00000KT 10SM OVC007 06/06 A3004 RMK AO2 T00610061 =
2016-12-05 10:35 METAR KEZF 051535Z AUTO 28003KT 10SM OVC007 06/06 A3004 RMK AO2 T00590059 =
2016-12-05 10:15 METAR KEZF 051515Z AUTO 00000KT 10SM OVC007 06/06 A3003 RMK AO2 T00560056 =
2016-12-05 09:55 METAR KEZF 051455Z AUTO 30005KT 10SM OVC007 06/06 A3003 RMK AO2 T00550055 =
2016-12-05 09:35 METAR KEZF 051435Z AUTO 32004KT 10SM OVC007 05/05 A3003 RMK AO2 T00530053 =
2016-12-05 09:15 METAR KEZF 051415Z AUTO 26004KT 10SM OVC007 05/05 A3002 RMK AO2 T00540054 =
2016-12-05 08:55 METAR KEZF 051355Z AUTO 00000KT 10SM OVC007 05/05 A3002 RMK AO2 T00530053 =
2016-12-05 08:35 METAR KEZF 051335Z AUTO 25005KT 10SM OVC007 05/05 A3002 RMK AO2 T00540054 =
2016-12-05 08:15 METAR KEZF 051315Z AUTO 27003KT 10SM OVC007 05/05 A3001 RMK AO2 T00510051 =
2016-12-05 07:55 METAR KEZF 051255Z AUTO 24003KT 10SM OVC007 05/05 A3000 RMK AO2 T00500050 =
2016-12-05 07:35 METAR KEZF 051235Z AUTO 24005KT 10SM OVC007 05/05 A3000 RMK AO2 T00500050 =
2016-12-05 07:15 METAR KEZF 051215Z AUTO 23003KT 10SM OVC007 05/05 A2999 RMK AO2 T00500050 =
2016-12-05 06:55 METAR KEZF 051155Z AUTO 20003KT 10SM OVC007 05/05 A2999 RMK AO2 60009 70015
                 T00500050 10051 20040 =
2016-12-05 06:35 METAR KEZF 051135Z AUTO 19003KT 10SM OVC007 05/05 A2999 RMK AO2 T00500050 =
2016-12-05 06:15 METAR KEZF 051115Z AUTO 00000KT 10SM OVC007 05/05 A3000 RMK AO2 T00500050 =
2016-12-05 05:55 METAR KEZF 051055Z AUTO 00000KT 10SM OVC007 05/05 A3001 RMK AO2 T00500050 =
2016-12-05 05:35 METAR KEZF 051035Z AUTO 00000KT 10SM OVC007 05/05 A3000 RMK AO2 T00500050 =
2016-12-05 05:15 METAR KEZF 051015Z AUTO 20005KT 10SM OVC007 05/05 A3000 RMK AO2 T00500050 =
2016-12-05 04:55 METAR KEZF 050955Z AUTO 17004KT 10SM OVC007 05/05 A3000 RMK AO2 T00500050 =
2016-12-05 04:35 METAR KEZF 050935Z AUTO 19004KT 10SM BKN007 BKN040 OVC045 05/05 A3001 RMK AO2
                 T00480048 =
2016-12-05 04:15 METAR KEZF 050915Z AUTO 17004KT 10SM SCT007 OVC047 05/05 A3002 RMK AO2 T00470047
                 =
2016-12-05 03:55 METAR KEZF 050855Z AUTO 16006KT 7SM -DZ BKN007 SCT018 OVC049 05/05 A3002 RMK AO2
                 60009 T00460046 =
2016-12-05 03:35 METAR KEZF 050835Z AUTO 16005KT 7SM -DZ BKN007 BKN037 OVC046 05/05 A3003 RMK AO2
                 T00450045 =
2016-12-05 03:15 METAR KEZF 050815Z AUTO 18004KT 5SM -DZ BKN007 BKN018 OVC055 05/05 A3004 RMK AO2
                 T00450045 =
2016-12-05 02:55 METAR KEZF 050755Z AUTO 17004KT 5SM DZ SCT007 BKN018 OVC025 04/04 A3005 RMK AO2
                 P0003 T00440044 =
2016-12-05 02:35 METAR KEZF 050735Z AUTO 17004KT 5SM DZ SCT007 BKN018 OVC025 04/04 A3006 RMK AO2
                 P0002 T00430043 =
2016-12-05 02:10 METAR KEZF 050710Z AUTO 19004KT 4SM -RA SCT005 BKN023 OVC031 04/04 A3006 RMK AO2
                 P0001 T00420042 =
2016-12-05 01:55 METAR KEZF 050655Z AUTO 20004KT 3SM RA SCT007 BKN015 OVC023 04/04 A3006 RMK AO2
                 P0006 T00420042 =
2016-12-05 01:35 METAR KEZF 050635Z AUTO 19004KT 3SM RA OVC007 04/04 A3006 RMK AO2 P0004
                 T00420042 =
2016-12-05 01:15 METAR KEZF 050615Z AUTO 18004KT 3SM -RA OVC007 04/04 A3005 RMK AO2 P0001
                 T00410041 =
2016-12-05 00:55 METAR KEZF 050555Z AUTO 18003KT 3SM -RA OVC007 04/04 A3006 RMK AO2 P0001 60006
                 T00400040 10062 20040 400770000 =
2016-12-05 00:35 METAR KEZF 050535Z AUTO 17004KT 3SM DZ OVC007 04/04 A3006 RMK AO2 T00400040 =
2016-12-05 00:15 METAR KEZF 050515Z AUTO 17004KT 3SM DZ OVC007 04/04 A3006 RMK AO2 T00400040 =
2016-12-04 23:55 METAR KEZF 050455Z AUTO 15005KT 4SM -RA SCT007 BKN023 OVC030 04/04 A3007 RMK AO2
                 P0001 T00400040 =
2016-12-04 23:35 METAR KEZF 050435Z AUTO 15005KT 3SM RA SCT026 OVC032 04/04 A3009 RMK AO2
                 T00400040 =
2016-12-04 23:15 METAR KEZF 050415Z AUTO 16004KT 5SM -DZ BKN032 OVC044 04/04 A3012 RMK AO2
                 T00410041 =
2016-12-04 22:55 METAR KEZF 050355Z AUTO 15005KT 4SM -RA SCT037 BKN044 OVC050 04/04 A3011 RMK AO2
                 P0001 T00400040 =
2016-12-04 22:35 METAR KEZF 050335Z AUTO 15005KT 4SM RA SCT031 OVC042 04/04 A3012 RMK AO2 P0001
                 T00400040 =
2016-12-04 22:15 METAR KEZF 050315Z AUTO 14004KT 7SM -DZ SCT032 OVC042 04/04 A3013 RMK AO2
                 T00420042 =
2016-12-04 21:55 METAR KEZF 050255Z AUTO 14003KT 7SM DZ SCT032 OVC040 04/04 A3014 RMK AO2 P0003
                 60003 T00430037 =
2016-12-04 21:35 METAR KEZF 050235Z AUTO 00000KT 7SM -RA OVC042 05/03 A3015 RMK AO2 P0003
                 T00450034 =
2016-12-04 21:15 METAR KEZF 050215Z AUTO 00000KT 7SM -RA OVC042 05/03 A3016 RMK AO2 P0001
                 T00470031 =
2016-12-04 20:50 METAR KEZF 050150Z AUTO 17004KT 10SM -RA OVC044 05/03 A3016 RMK AO2 T00510026 =
2016-12-04 20:35 METAR KEZF 050135Z AUTO 19004KT 10SM RA OVC046 05/03 A3017 RMK AO2 T00520025 =
2016-12-04 20:15 METAR KEZF 050115Z AUTO 18004KT 10SM -RA OVC048 06/02 A3017 RMK AO2 T00560021 =
2016-12-04 19:55 METAR KEZF 050055Z AUTO 17004KT 10SM -DZ OVC050 06/02 A3017 RMK AO2 T00590019 =
2016-12-04 19:35 METAR KEZF 050035Z AUTO 17005KT 10SM OVC050 06/01 A3017 RMK AO2 T00610011 =
2016-12-04 19:15 METAR KEZF 050015Z AUTO 17004KT 10SM OVC055 06/01 A3018 RMK AO2 T00610011 =
2016-12-04 18:55 METAR KEZF 042355Z AUTO 18005KT 10SM BKN055 06/01 A3018 RMK AO2 T00620010 10077
                 20062 =
2016-12-04 18:35 METAR KEZF 042335Z AUTO 18005KT 10SM SCT065 06/01 A3017 RMK AO2 T00620010 =
2016-12-04 18:15 METAR KEZF 042315Z AUTO 17005KT 10SM SCT065 06/01 A3018 RMK AO2 T00620007 =
2016-12-04 17:55 METAR KEZF 042255Z AUTO 17005KT 10SM OVC075 07/01 A3019 RMK AO2 T00650006 =
2016-12-04 17:35 METAR KEZF 042235Z AUTO 19004KT 10SM OVC075 07/00 A3020 RMK AO2 T00660002 =
2016-12-04 17:15 METAR KEZF 042215Z AUTO 17004KT 10SM OVC075 07/01 A3019 RMK AO2 T00670005 =
2016-12-04 16:55 METAR KEZF 042155Z AUTO 16004KT 10SM OVC085 07/01 A3019 RMK AO2 T00670005 =
2016-12-04 16:35 METAR KEZF 042135Z AUTO 15004KT 10SM BKN085 07/00 A3019 RMK AO2 T00680003 =
2016-12-04 16:15 METAR KEZF 042115Z AUTO 16003KT 10SM SCT085 07/01 A3020 RMK AO2 T00700005 =
2016-12-04 15:55 METAR KEZF 042055Z AUTO 16004KT 10SM CLR 08/00 A3021 RMK AO2 T00750000 =
2016-12-04 15:35 METAR KEZF 042035Z AUTO 16003KT 10SM CLR 08/00 A3020 RMK AO2 T00751001 =
2016-12-04 15:15 METAR KEZF 042015Z AUTO 00000KT 10SM CLR 08/00 A3021 RMK AO2 T00751004 =
2016-12-04 14:55 METAR KEZF 041955Z AUTO 16003KT 10SM CLR 08/00 A3021 RMK AO2 T00751002 =
2016-12-04 14:35 METAR KEZF 041935Z AUTO 16004KT 10SM CLR 08/00 A3020 RMK AO2 T00751005 =
2016-12-04 14:10 METAR KEZF 041910Z AUTO 00000KT 10SM CLR 08/M01 A3021 RMK AO2 T00751008 =
2016-12-04 13:55 METAR KEZF 041855Z AUTO 00000KT 10SM CLR 07/M01 A3022 RMK AO2 T00731007 =
2016-12-04 13:35 METAR KEZF 041835Z AUTO 00000KT 10SM CLR 08/00 A3024 RMK AO2 T00751004 =
2016-12-04 13:15 METAR KEZF 041815Z AUTO 00000KT 10SM CLR 07/00 A3024 RMK AO2 T00731002 =
2016-12-04 12:55 METAR KEZF 041755Z AUTO 00000KT 10SM CLR 07/00 A3025 RMK AO2 T00740000 10074
                 20007 =
2016-12-04 12:35 METAR KEZF 041735Z AUTO 00000KT 10SM CLR 07/00 A3025 RMK AO2 T00691001 =
2016-12-04 12:15 METAR KEZF 041715Z AUTO 00000KT 10SM CLR 06/00 A3026 RMK AO2 T00631001 =
2016-12-04 11:55 METAR KEZF 041655Z AUTO 00000KT 10SM CLR 06/00 A3026 RMK AO2 T00601003 =

Support USWX by starting your Amazon purchase here.